This is the latest recevied weather packets stored in our database for station/object M0HPP-13. If no packets are shown the sender has not sent any weather packets the latest 10 day(s).
| Time | Temp. | Humidity | Pressure | Rain* | Wind** | Luminosity | Snow |
|---|---|---|---|---|---|---|---|
| 1778280929 | 2.78° C | 86% | 1021.4 hPa | 0 mm | - | 0 W/m² | - |
| 1778280329 | 3.33° C | 85% | 1021.3 hPa | 0 mm | - | 0 W/m² | - |
| 1778279729 | 3.89° C | 84% | 1021.2 hPa | 0 mm | - | 0 W/m² | - |
| 1778279129 | 3.89° C | 85% | 1021.1 hPa | 0 mm | - | 0 W/m² | - |
| 1778278529 | 3.89° C | 84% | 1021 hPa | 0 mm | - | 0 W/m² | - |
| 1778277929 | 4.44° C | 83% | 1020.9 hPa | 0 mm | - | 0 W/m² | - |
| 1778277329 | 4.44° C | 82% | 1020.9 hPa | 0 mm | - | 0 W/m² | - |
| 1778276729 | 4.44° C | 82% | 1020.7 hPa | 0 mm | - | 0 W/m² | - |
| 1778276129 | 5° C | 80% | 1020.5 hPa | 0 mm | - | 0 W/m² | - |
| 1778275529 | 5° C | 79% | 1020.4 hPa | 0 mm | - | 0 W/m² | - |
| 1778274929 | 5° C | 78% | 1020.2 hPa | 0 mm | - | 0 W/m² | - |
| 1778274329 | 5° C | 77% | 1020.1 hPa | 0 mm | - | 0 W/m² | - |
| 1778273729 | 5.56° C | 76% | 1020.1 hPa | 0 mm | - | 0 W/m² | - |
| 1778273129 | 5.56° C | 75% | 1020 hPa | 0 mm | - | 1 W/m² | - |
| 1777809619 | 7.22° C | 83% | 1014.4 hPa | 0 mm | - | 187 W/m² | - |
| 1777809019 | 7.22° C | 83% | 1014.4 hPa | 0 mm | - | 204 W/m² | - |
| 1777808419 | 7.22° C | 83% | 1014.3 hPa | 0 mm | - | 210 W/m² | - |
| 1777807819 | 7.22° C | 83% | 1014.3 hPa | 0 mm | - | 228 W/m² | - |
| 1777807219 | 7.22° C | 83% | 1014.4 hPa | 0 mm | - | 252 W/m² | - |
| 1777806619 | 7.22° C | 83% | 1014.5 hPa | 0 mm | - | 257 W/m² | - |
| 1777806019 | 7.22° C | 83% | 1014.5 hPa | 0 mm | - | 227 W/m² | - |
| 1777805419 | 6.67° C | 84% | 1014.6 hPa | 0 mm | - | 177 W/m² | - |
| 1777804819 | 6.67° C | 84% | 1014.6 hPa | 0 mm | - | 163 W/m² | - |
| 1777804219 | 7.22° C | 84% | 1014.8 hPa | 0 mm | - | 159 W/m² | - |
| 1777803619 | 7.22° C | 84% | 1014.6 hPa | 0 mm | - | 180 W/m² | - |
* Rain latest hour (hover to see other rain measurements)
** Current wind speed in m/s (hover to see current wind gust speed)